sensor_id;sensor_type;location;lat;lon;timestamp;pressure;altitude;pressure_sealevel;temperature;humidity
47815;BME280;33579;50.058;18.130;2022-07-30T00:00:45;99065.28;;;19.65;100.00
47815;BME280;33579;50.058;18.130;2022-07-30T00:01:46;99066.34;;;19.71;100.00
47815;BME280;33579;50.058;18.130;2022-07-30T00:02:48;99064.91;;;19.68;100.00
47815;BME280;33579;50.058;18.130;2022-07-30T00:03:49;99059.75;;;19.66;100.00
47815;BME280;33579;50.058;18.130;2022-07-30T00:04:52;99060.59;;;19.67;100.00
47815;BME280;33579;50.058;18.130;2022-07-30T00:05:53;99059.56;;;19.68;100.00
47815;BME280;33579;50.058;18.130;2022-07-30T00:06:55;99057.06;;;19.66;100.00
47815;BME280;33579;50.058;18.130;2022-07-30T00:07:57;99052.97;;;19.64;100.00
47815;BME280;33579;50.058;18.130;2022-07-30T00:08:58;99052.75;;;19.65;100.00
47815;BME280;33579;50.058;18.130;2022-07-30T00:10:01;99052.13;;;19.63;100.00
47815;BME280;33579;50.058;18.130;2022-07-30T00:11:02;99044.56;;;19.67;100.00
47815;BME280;33579;50.058;18.130;2022-07-30T00:12:05;99046.66;;;19.72;100.00
47815;BME280;33579;50.058;18.130;2022-07-30T00:13:07;99048.09;;;19.74;100.00
47815;BME280;33579;50.058;18.130;2022-07-30T00:14:08;99040.91;;;19.75;100.00
47815;BME280;33579;50.058;18.130;2022-07-30T00:15:10;99044.03;;;19.78;100.00
47815;BME280;33579;50.058;18.130;2022-07-30T00:16:11;99033.53;;;19.77;100.00
47815;BME280;33579;50.058;18.130;2022-07-30T00:17:13;99035.38;;;19.76;100.00
47815;BME280;33579;50.058;18.130;2022-07-30T00:18:15;99037.03;;;19.77;100.00
47815;BME280;33579;50.058;18.130;2022-07-30T00:19:16;99029.22;;;19.76;100.00
47815;BME280;33579;50.058;18.130;2022-07-30T00:20:18;99031.88;;;19.76;100.00
47815;BME280;33579;50.058;18.130;2022-07-30T00:21:20;99035.16;;;19.78;100.00
47815;BME280;33579;50.058;18.130;2022-07-30T00:22:39;99035.16;;;19.78;100.00
47815;BME280;33579;50.058;18.130;2022-07-30T00:23:40;99038.06;;;19.76;100.00
47815;BME280;33579;50.058;18.130;2022-07-30T00:25:02;99043.97;;;19.72;100.00
47815;BME280;33579;50.058;18.130;2022-07-30T00:26:03;99046.84;;;19.70;100.00
47815;BME280;33579;50.058;18.130;2022-07-30T00:27:07;99038.84;;;19.70;100.00
47815;BME280;33579;50.058;18.130;2022-07-30T00:28:09;99044.59;;;19.74;100.00
47815;BME280;33579;50.058;18.130;2022-07-30T00:29:10;99041.09;;;19.73;100.00
47815;BME280;33579;50.058;18.130;2022-07-30T00:30:12;99039.88;;;19.76;100.00
47815;BME280;33579;50.058;18.130;2022-07-30T00:31:13;99043.69;;;19.60;100.00
47815;BME280;33579;50.058;18.130;2022-07-30T00:32:15;99048.09;;;19.39;100.00
47815;BME280;33579;50.058;18.130;2022-07-30T00:33:16;99043.53;;;19.33;100.00
47815;BME280;33579;50.058;18.130;2022-07-30T00:34:18;99045.00;;;19.35;100.00
47815;BME280;33579;50.058;18.130;2022-07-30T00:35:20;99037.22;;;19.41;100.00
47815;BME280;33579;50.058;18.130;2022-07-30T00:36:21;99035.41;;;19.41;100.00
47815;BME280;33579;50.058;18.130;2022-07-30T00:37:23;99028.81;;;19.44;100.00
47815;BME280;33579;50.058;18.130;2022-07-30T00:38:24;99035.00;;;19.44;100.00
47815;BME280;33579;50.058;18.130;2022-07-30T00:39:26;99032.31;;;19.44;100.00
47815;BME280;33579;50.058;18.130;2022-07-30T00:40:27;99027.63;;;19.46;100.00
47815;BME280;33579;50.058;18.130;2022-07-30T00:41:29;99024.75;;;19.48;100.00
47815;BME280;33579;50.058;18.130;2022-07-30T00:42:45;99024.72;;;19.41;100.00
47815;BME280;33579;50.058;18.130;2022-07-30T00:43:46;99027.31;;;19.28;100.00
47815;BME280;33579;50.058;18.130;2022-07-30T00:44:48;99032.38;;;19.22;100.00
47815;BME280;33579;50.058;18.130;2022-07-30T00:45:49;99030.28;;;19.18;100.00
47815;BME280;33579;50.058;18.130;2022-07-30T00:46:51;99032.59;;;19.21;100.00
47815;BME280;33579;50.058;18.130;2022-07-30T00:47:53;99025.25;;;19.30;100.00
47815;BME280;33579;50.058;18.130;2022-07-30T00:48:54;99018.72;;;19.32;100.00
47815;BME280;33579;50.058;18.130;2022-07-30T00:49:56;99020.38;;;19.33;100.00
47815;BME280;33579;50.058;18.130;2022-07-30T00:50:58;99017.34;;;19.43;100.00
47815;BME280;33579;50.058;18.130;2022-07-30T00:51:59;99023.69;;;19.42;100.00
47815;BME280;33579;50.058;18.130;2022-07-30T00:53:03;99021.19;;;19.34;100.00
47815;BME280;33579;50.058;18.130;2022-07-30T00:54:05;99031.75;;;19.20;100.00
47815;BME280;33579;50.058;18.130;2022-07-30T00:55:08;99025.97;;;19.17;100.00
47815;BME280;33579;50.058;18.130;2022-07-30T00:56:10;99019.25;;;19.21;100.00
47815;BME280;33579;50.058;18.130;2022-07-30T00:57:12;99009.41;;;19.21;100.00
47815;BME280;33579;50.058;18.130;2022-07-30T00:58:14;99019.84;;;19.16;100.00
47815;BME280;33579;50.058;18.130;2022-07-30T00:59:15;99014.25;;;19.11;100.00
47815;BME280;33579;50.058;18.130;2022-07-30T01:00:17;99013.22;;;19.12;100.00
47815;BME280;33579;50.058;18.130;2022-07-30T01:01:19;99021.66;;;19.16;100.00
47815;BME280;33579;50.058;18.130;2022-07-30T01:02:21;99014.56;;;19.23;100.00
47815;BME280;33579;50.058;18.130;2022-07-30T01:03:22;99017.22;;;19.23;100.00
47815;BME280;33579;50.058;18.130;2022-07-30T01:04:24;99030.34;;;19.24;100.00
47815;BME280;33579;50.058;18.130;2022-07-30T01:05:25;99009.66;;;19.27;100.00
47815;BME280;33579;50.058;18.130;2022-07-30T01:06:27;99022.16;;;19.26;100.00
47815;BME280;33579;50.058;18.130;2022-07-30T01:07:29;99020.91;;;19.22;100.00
47815;BME280;33579;50.058;18.130;2022-07-30T01:08:30;99014.50;;;19.16;100.00
47815;BME280;33579;50.058;18.130;2022-07-30T01:09:32;99017.97;;;19.17;100.00
47815;BME280;33579;50.058;18.130;2022-07-30T01:10:33;99016.78;;;19.19;100.00
47815;BME280;33579;50.058;18.130;2022-07-30T01:11:38;99012.91;;;19.22;100.00
47815;BME280;33579;50.058;18.130;2022-07-30T01:12:41;99013.13;;;19.27;100.00
47815;BME280;33579;50.058;18.130;2022-07-30T01:13:43;99010.72;;;19.32;100.00
47815;BME280;33579;50.058;18.130;2022-07-30T01:14:45;99012.78;;;19.37;100.00
47815;BME280;33579;50.058;18.130;2022-07-30T01:15:47;99013.44;;;19.39;100.00
47815;BME280;33579;50.058;18.130;2022-07-30T01:16:49;99014.06;;;19.41;100.00
47815;BME280;33579;50.058;18.130;2022-07-30T01:17:52;99014.84;;;19.42;100.00
47815;BME280;33579;50.058;18.130;2022-07-30T01:18:57;99018.16;;;19.44;100.00
47815;BME280;33579;50.058;18.130;2022-07-30T01:20:04;99019.81;;;19.45;100.00
47815;BME280;33579;50.058;18.130;2022-07-30T01:21:09;99020.63;;;19.45;100.00
47815;BME280;33579;50.058;18.130;2022-07-30T01:23:35;99023.13;;;19.47;100.00
47815;BME280;33579;50.058;18.130;2022-07-30T01:24:51;99022.81;;;19.35;100.00
47815;BME280;33579;50.058;18.130;2022-07-30T01:26:03;99020.72;;;19.30;100.00
47815;BME280;33579;50.058;18.130;2022-07-30T01:27:06;99019.94;;;19.30;100.00
47815;BME280;33579;50.058;18.130;2022-07-30T01:28:11;99017.25;;;19.30;100.00
47815;BME280;33579;50.058;18.130;2022-07-30T01:29:15;99019.94;;;19.30;100.00
47815;BME280;33579;50.058;18.130;2022-07-30T01:30:20;99016.06;;;19.32;100.00
47815;BME280;33579;50.058;18.130;2022-07-30T01:31:24;99024.28;;;19.37;100.00
47815;BME280;33579;50.058;18.130;2022-07-30T01:32:27;99017.94;;;19.38;100.00
47815;BME280;33579;50.058;18.130;2022-07-30T01:33:31;99018.38;;;19.42;100.00
47815;BME280;33579;50.058;18.130;2022-07-30T01:34:36;99011.38;;;19.41;100.00
47815;BME280;33579;50.058;18.130;2022-07-30T01:35:42;99009.47;;;19.35;100.00
47815;BME280;33579;50.058;18.130;2022-07-30T01:36:45;99011.72;;;19.31;100.00
47815;BME280;33579;50.058;18.130;2022-07-30T01:37:48;99010.91;;;19.31;100.00
47815;BME280;33579;50.058;18.130;2022-07-30T01:38:52;99015.03;;;19.33;100.00
47815;BME280;33579;50.058;18.130;2022-07-30T01:39:54;99002.50;;;19.34;100.00
47815;BME280;33579;50.058;18.130;2022-07-30T01:40:56;99004.38;;;19.33;100.00
47815;BME280;33579;50.058;18.130;2022-07-30T01:41:59;99012.78;;;19.37;100.00
47815;BME280;33579;50.058;18.130;2022-07-30T01:43:03;99003.13;;;19.36;100.00
47815;BME280;33579;50.058;18.130;2022-07-30T01:44:11;99007.84;;;19.34;100.00
47815;BME280;33579;50.058;18.130;2022-07-30T01:45:14;99011.13;;;19.36;100.00
47815;BME280;33579;50.058;18.130;2022-07-30T01:46:16;99008.88;;;19.33;100.00
47815;BME280;33579;50.058;18.130;2022-07-30T01:47:22;99007.63;;;19.29;100.00
47815;BME280;33579;50.058;18.130;2022-07-30T01:48:25;99004.72;;;19.30;100.00
47815;BME280;33579;50.058;18.130;2022-07-30T01:49:28;99003.94;;;19.30;100.00
47815;BME280;33579;50.058;18.130;2022-07-30T01:50:32;98999.78;;;19.27;100.00
47815;BME280;33579;50.058;18.130;2022-07-30T01:51:36;98996.09;;;19.28;100.00
47815;BME280;33579;50.058;18.130;2022-07-30T01:52:41;98995.47;;;19.26;100.00
47815;BME280;33579;50.058;18.130;2022-07-30T01:53:48;98996.94;;;19.29;100.00
47815;BME280;33579;50.058;18.130;2022-07-30T01:54:53;98993.66;;;19.27;100.00
47815;BME280;33579;50.058;18.130;2022-07-30T01:55:58;98996.50;;;19.25;100.00
47815;BME280;33579;50.058;18.130;2022-07-30T01:57:00;99002.88;;;19.24;100.00
47815;BME280;33579;50.058;18.130;2022-07-30T01:58:05;98999.78;;;19.27;100.00
47815;BME280;33579;50.058;18.130;2022-07-30T01:59:07;98998.16;;;19.26;100.00
47815;BME280;33579;50.058;18.130;2022-07-30T02:00:11;98997.03;;;19.14;100.00
47815;BME280;33579;50.058;18.130;2022-07-30T02:01:22;99002.72;;;19.04;100.00
47815;BME280;33579;50.058;18.130;2022-07-30T02:02:29;98989.81;;;19.07;100.00
47815;BME280;33579;50.058;18.130;2022-07-30T02:03:33;99001.53;;;19.13;100.00
47815;BME280;33579;50.058;18.130;2022-07-30T02:04:35;98992.56;;;19.14;100.00
47815;BME280;33579;50.058;18.130;2022-07-30T02:05:39;98996.25;;;19.20;100.00
47815;BME280;33579;50.058;18.130;2022-07-30T02:07:01;98991.16;;;19.25;100.00
47815;BME280;33579;50.058;18.130;2022-07-30T02:08:17;98991.78;;;19.27;100.00
47815;BME280;33579;50.058;18.130;2022-07-30T02:09:28;98983.63;;;19.29;100.00
47815;BME280;33579;50.058;18.130;2022-07-30T02:12:00;98981.13;;;19.27;100.00
47815;BME280;33579;50.058;18.130;2022-07-30T02:13:04;98978.66;;;19.26;100.00
47815;BME280;33579;50.058;18.130;2022-07-30T02:14:15;98975.00;;;19.27;100.00
47815;BME280;33579;50.058;18.130;2022-07-30T02:15:51;98979.91;;;19.30;100.00
47815;BME280;33579;50.058;18.130;2022-07-30T02:16:56;98976.06;;;19.32;100.00
47815;BME280;33579;50.058;18.130;2022-07-30T02:18:07;98981.16;;;19.34;100.00
47815;BME280;33579;50.058;18.130;2022-07-30T02:19:13;98979.09;;;19.29;100.00
47815;BME280;33579;50.058;18.130;2022-07-30T02:20:16;98980.31;;;19.27;100.00
47815;BME280;33579;50.058;18.130;2022-07-30T02:21:19;98975.78;;;19.27;100.00
47815;BME280;33579;50.058;18.130;2022-07-30T02:22:24;98978.28;;;19.29;100.00
47815;BME280;33579;50.058;18.130;2022-07-30T02:23:27;98982.78;;;19.28;100.00
47815;BME280;33579;50.058;18.130;2022-07-30T02:24:31;98971.25;;;19.21;100.00
47815;BME280;33579;50.058;18.130;2022-07-30T02:25:34;98979.63;;;19.18;100.00
47815;BME280;33579;50.058;18.130;2022-07-30T02:26:40;98976.34;;;19.16;100.00
47815;BME280;33579;50.058;18.130;2022-07-30T02:27:47;98978.81;;;19.17;100.00
47815;BME280;33579;50.058;18.130;2022-07-30T02:28:52;98974.09;;;19.19;100.00
47815;BME280;33579;50.058;18.130;2022-07-30T02:29:58;98978.03;;;19.23;100.00
47815;BME280;33579;50.058;18.130;2022-07-30T02:31:02;98983.97;;;19.26;100.00
47815;BME280;33579;50.058;18.130;2022-07-30T02:32:21;98983.75;;;19.20;100.00
47815;BME280;33579;50.058;18.130;2022-07-30T02:33:32;98980.31;;;18.98;100.00
47815;BME280;33579;50.058;18.130;2022-07-30T02:34:43;98980.78;;;18.80;100.00
47815;BME280;33579;50.058;18.130;2022-07-30T02:35:47;98979.38;;;18.84;100.00
47815;BME280;33579;50.058;18.130;2022-07-30T02:36:50;98975.94;;;18.90;100.00
47815;BME280;33579;50.058;18.130;2022-07-30T02:37:53;98966.97;;;18.98;100.00
47815;BME280;33579;50.058;18.130;2022-07-30T02:38:57;98964.13;;;19.00;100.00
47815;BME280;33579;50.058;18.130;2022-07-30T02:39:59;98956.50;;;18.96;100.00
47815;BME280;33579;50.058;18.130;2022-07-30T02:41:01;98962.66;;;18.97;100.00
47815;BME280;33579;50.058;18.130;2022-07-30T02:42:06;98969.47;;;19.00;100.00
47815;BME280;33579;50.058;18.130;2022-07-30T02:43:09;98961.19;;;18.94;100.00
47815;BME280;33579;50.058;18.130;2022-07-30T02:44:11;98977.16;;;18.88;100.00
47815;BME280;33579;50.058;18.130;2022-07-30T02:45:16;98969.22;;;18.73;100.00
47815;BME280;33579;50.058;18.130;2022-07-30T02:46:20;98972.34;;;18.76;100.00
47815;BME280;33579;50.058;18.130;2022-07-30T02:47:44;98977.16;;;18.88;100.00
47815;BME280;33579;50.058;18.130;2022-07-30T02:48:47;98979.41;;;18.91;100.00
47815;BME280;33579;50.058;18.130;2022-07-30T02:49:53;98972.66;;;18.95;100.00
47815;BME280;33579;50.058;18.130;2022-07-30T02:50:56;98980.66;;;18.95;100.00
47815;BME280;33579;50.058;18.130;2022-07-30T02:52:00;98962.84;;;18.95;100.00
47815;BME280;33579;50.058;18.130;2022-07-30T02:53:06;98966.13;;;18.98;100.00
47815;BME280;33579;50.058;18.130;2022-07-30T02:54:09;98966.97;;;18.98;100.00
47815;BME280;33579;50.058;18.130;2022-07-30T02:55:15;98964.97;;;19.00;100.00
47815;BME280;33579;50.058;18.130;2022-07-30T02:56:20;98956.31;;;18.98;100.00
47815;BME280;33579;50.058;18.130;2022-07-30T02:57:22;98958.53;;;18.94;100.00
47815;BME280;33579;50.058;18.130;2022-07-30T02:58:24;98957.97;;;18.99;100.00
47815;BME280;33579;50.058;18.130;2022-07-30T02:59:28;98950.44;;;19.03;100.00
47815;BME280;33579;50.058;18.130;2022-07-30T03:00:31;98950.63;;;19.01;100.00
47815;BME280;33579;50.058;18.130;2022-07-30T03:01:34;98951.44;;;19.02;100.00
47815;BME280;33579;50.058;18.130;2022-07-30T03:02:36;98954.44;;;18.99;100.00
47815;BME280;33579;50.058;18.130;2022-07-30T03:03:42;98961.00;;;18.96;100.00
47815;BME280;33579;50.058;18.130;2022-07-30T03:04:45;98953.19;;;18.94;100.00
47815;BME280;33579;50.058;18.130;2022-07-30T03:05:50;98955.63;;;18.89;100.00
47815;BME280;33579;50.058;18.130;2022-07-30T03:06:53;98960.97;;;18.89;100.00
47815;BME280;33579;50.058;18.130;2022-07-30T03:07:57;98953.16;;;18.88;100.00
47815;BME280;33579;50.058;18.130;2022-07-30T03:09:01;98949.88;;;18.86;100.00
47815;BME280;33579;50.058;18.130;2022-07-30T03:10:04;98954.97;;;18.87;100.00
47815;BME280;33579;50.058;18.130;2022-07-30T03:11:09;98952.31;;;18.87;100.00
47815;BME280;33579;50.058;18.130;2022-07-30T03:12:13;98947.19;;;18.86;100.00
47815;BME280;33579;50.058;18.130;2022-07-30T03:13:16;98950.06;;;18.84;100.00
47815;BME280;33579;50.058;18.130;2022-07-30T03:14:20;98949.03;;;18.85;100.00
47815;BME280;33579;50.058;18.130;2022-07-30T03:15:25;98954.97;;;18.87;100.00
47815;BME280;33579;50.058;18.130;2022-07-30T03:16:29;98951.75;;;18.92;100.00
47815;BME280;33579;50.058;18.130;2022-07-30T03:17:37;98957.28;;;18.90;100.00
47815;BME280;33579;50.058;18.130;2022-07-30T03:18:41;98965.81;;;18.79;100.00
47815;BME280;33579;50.058;18.130;2022-07-30T03:19:44;98962.81;;;18.67;100.00
47815;BME280;33579;50.058;18.130;2022-07-30T03:20:52;98966.28;;;18.61;100.00
47815;BME280;33579;50.058;18.130;2022-07-30T03:21:55;98969.25;;;18.51;100.00
47815;BME280;33579;50.058;18.130;2022-07-30T03:22:58;98972.28;;;18.48;100.00
47815;BME280;33579;50.058;18.130;2022-07-30T03:24:05;98969.44;;;18.49;100.00
47815;BME280;33579;50.058;18.130;2022-07-30T03:25:09;98966.97;;;18.48;100.00
47815;BME280;33579;50.058;18.130;2022-07-30T03:26:12;98965.00;;;18.57;100.00
47815;BME280;33579;50.058;18.130;2022-07-30T03:27:15;98961.41;;;18.64;100.00
47815;BME280;33579;50.058;18.130;2022-07-30T03:28:18;98961.00;;;18.67;100.00
47815;BME280;33579;50.058;18.130;2022-07-30T03:29:21;98963.09;;;18.72;100.00
47815;BME280;33579;50.058;18.130;2022-07-30T03:30:24;98961.69;;;18.76;100.00
47815;BME280;33579;50.058;18.130;2022-07-30T03:31:28;98959.00;;;18.76;100.00
47815;BME280;33579;50.058;18.130;2022-07-30T03:32:37;98956.78;;;18.80;100.00
47815;BME280;33579;50.058;18.130;2022-07-30T03:33:43;98955.34;;;18.77;100.00
47815;BME280;33579;50.058;18.130;2022-07-30T03:34:48;98953.50;;;18.78;100.00
47815;BME280;33579;50.058;18.130;2022-07-30T03:35:51;98947.97;;;18.79;100.00
47815;BME280;33579;50.058;18.130;2022-07-30T03:36:54;98945.28;;;18.79;100.00
47815;BME280;33579;50.058;18.130;2022-07-30T03:37:57;98946.56;;;18.84;100.00
47815;BME280;33579;50.058;18.130;2022-07-30T03:39:00;98944.31;;;18.87;100.00
47815;BME280;33579;50.058;18.130;2022-07-30T03:40:03;98950.31;;;18.89;100.00
47815;BME280;33579;50.058;18.130;2022-07-30T03:41:06;98957.28;;;18.90;100.00
47815;BME280;33579;50.058;18.130;2022-07-30T03:42:09;98955.44;;;18.91;100.00
47815;BME280;33579;50.058;18.130;2022-07-30T03:43:12;98958.72;;;18.93;100.00
47815;BME280;33579;50.058;18.130;2022-07-30T03:44:34;98963.56;;;18.82;100.00
47815;BME280;33579;50.058;18.130;2022-07-30T03:45:40;98972.16;;;18.78;100.00
47815;BME280;33579;50.058;18.130;2022-07-30T03:46:43;98966.03;;;18.84;100.00
47815;BME280;33579;50.058;18.130;2022-07-30T03:47:46;98971.81;;;18.88;100.00
47815;BME280;33579;50.058;18.130;2022-07-30T03:48:48;98972.44;;;18.90;100.00
47815;BME280;33579;50.058;18.130;2022-07-30T03:49:53;98967.94;;;18.90;100.00
47815;BME280;33579;50.058;18.130;2022-07-30T03:50:54;98959.13;;;18.90;100.00
47815;BME280;33579;50.058;18.130;2022-07-30T03:51:57;98958.63;;;18.79;100.00
47815;BME280;33579;50.058;18.130;2022-07-30T03:52:59;98947.91;;;18.73;100.00
47815;BME280;33579;50.058;18.130;2022-07-30T03:54:02;98956.28;;;18.70;100.00
47815;BME280;33579;50.058;18.130;2022-07-30T03:55:13;98952.63;;;18.71;100.00
47815;BME280;33579;50.058;18.130;2022-07-30T03:56:41;98954.88;;;18.74;100.00
47815;BME280;33579;50.058;18.130;2022-07-30T03:58:05;98950.19;;;18.76;100.00
47815;BME280;33579;50.058;18.130;2022-07-30T03:59:09;98954.31;;;18.78;100.00
47815;BME280;33579;50.058;18.130;2022-07-30T04:00:14;98955.16;;;18.79;100.00
47815;BME280;33579;50.058;18.130;2022-07-30T04:01:25;98954.13;;;18.80;100.00
47815;BME280;33579;50.058;18.130;2022-07-30T04:02:30;98956.22;;;18.85;100.00
47815;BME280;33579;50.058;18.130;2022-07-30T04:03:51;98956.59;;;18.81;100.00
47815;BME280;33579;50.058;18.130;2022-07-30T04:04:53;98954.34;;;18.85;100.00
47815;BME280;33579;50.058;18.130;2022-07-30T04:05:56;98953.56;;;18.85;100.00
47815;BME280;33579;50.058;18.130;2022-07-30T04:06:58;98953.34;;;18.86;100.00
47815;BME280;33579;50.058;18.130;2022-07-30T04:08:00;98954.63;;;18.90;100.00
47815;BME280;33579;50.058;18.130;2022-07-30T04:09:03;98958.31;;;18.89;100.00
47815;BME280;33579;50.058;18.130;2022-07-30T04:10:05;98955.63;;;18.89;100.00
47815;BME280;33579;50.058;18.130;2022-07-30T04:11:30;98959.13;;;18.90;100.00
47815;BME280;33579;50.058;18.130;2022-07-30T04:12:47;98957.69;;;18.94;100.00
47815;BME280;33579;50.058;18.130;2022-07-30T04:13:49;98960.38;;;18.94;100.00
47815;BME280;33579;50.058;18.130;2022-07-30T04:14:56;98958.59;;;19.01;100.00
47815;BME280;33579;50.058;18.130;2022-07-30T04:16:04;98974.91;;;18.91;100.00
47815;BME280;33579;50.058;18.130;2022-07-30T04:17:32;98973.75;;;18.72;100.00
47815;BME280;33579;50.058;18.130;2022-07-30T04:18:41;98973.31;;;18.68;100.00
47815;BME280;33579;50.058;18.130;2022-07-30T04:19:50;98986.50;;;18.77;100.00
47815;BME280;33579;50.058;18.130;2022-07-30T04:20:53;98988.16;;;18.78;100.00
47815;BME280;33579;50.058;18.130;2022-07-30T04:21:56;98986.63;;;18.68;100.00
47815;BME280;33579;50.058;18.130;2022-07-30T04:22:59;98993.47;;;18.56;100.00
47815;BME280;33579;50.058;18.130;2022-07-30T04:24:01;98992.34;;;18.44;100.00
47815;BME280;33579;50.058;18.130;2022-07-30T04:25:07;98991.25;;;18.38;100.00
47815;BME280;33579;50.058;18.130;2022-07-30T04:26:09;98990.56;;;18.51;100.00
47815;BME280;33579;50.058;18.130;2022-07-30T04:27:11;98989.22;;;18.62;100.00
47815;BME280;33579;50.058;18.130;2022-07-30T04:28:14;98984.59;;;18.71;100.00
47815;BME280;33579;50.058;18.130;2022-07-30T04:29:16;98987.13;;;18.79;100.00
47815;BME280;33579;50.058;18.130;2022-07-30T04:30:26;98983.69;;;18.85;100.00
47815;BME280;33579;50.058;18.130;2022-07-30T04:31:28;98987.41;;;18.91;100.00
47815;BME280;33579;50.058;18.130;2022-07-30T04:32:37;98988.28;;;18.98;100.00
47815;BME280;33579;50.058;18.130;2022-07-30T04:34:17;98996.94;;;19.00;100.00
47815;BME280;33579;50.058;18.130;2022-07-30T04:35:29;98982.59;;;19.01;100.00
47815;BME280;33579;50.058;18.130;2022-07-30T04:36:51;98980.13;;;19.00;100.00
47815;BME280;33579;50.058;18.130;2022-07-30T04:37:53;98981.75;;;19.01;100.00
47815;BME280;33579;50.058;18.130;2022-07-30T04:38:55;98981.00;;;19.07;100.00
47815;BME280;33579;50.058;18.130;2022-07-30T04:39:57;98977.94;;;19.10;100.00
47815;BME280;33579;50.058;18.130;2022-07-30T04:40:59;98979.22;;;19.14;100.00
47815;BME280;33579;50.058;18.130;2022-07-30T04:42:03;98973.28;;;19.19;100.00
47815;BME280;33579;50.058;18.130;2022-07-30T04:43:09;98973.53;;;19.24;100.00
47815;BME280;33579;50.058;18.130;2022-07-30T04:44:12;98973.56;;;19.31;100.00
47815;BME280;33579;50.058;18.130;2022-07-30T04:45:23;98973.78;;;19.36;100.00
47815;BME280;33579;50.058;18.130;2022-07-30T04:46:31;98970.09;;;19.37;100.00
47815;BME280;33579;50.058;18.130;2022-07-30T04:47:32;98973.41;;;19.39;100.00
47815;BME280;33579;50.058;18.130;2022-07-30T04:48:57;98971.16;;;19.43;100.00
47815;BME280;33579;50.058;18.130;2022-07-30T04:50:08;98970.78;;;19.46;100.00
47815;BME280;33579;50.058;18.130;2022-07-30T04:51:36;98971.00;;;19.51;100.00
47815;BME280;33579;50.058;18.130;2022-07-30T04:52:39;98971.84;;;19.51;100.00
47815;BME280;33579;50.058;18.130;2022-07-30T04:53:42;98971.41;;;19.48;100.00
47815;BME280;33579;50.058;18.130;2022-07-30T04:54:54;98979.84;;;19.51;100.00
47815;BME280;33579;50.058;18.130;2022-07-30T04:55:58;98979.84;;;19.51;100.00
47815;BME280;33579;50.058;18.130;2022-07-30T04:57:03;98973.66;;;19.51;100.00
47815;BME280;33579;50.058;18.130;2022-07-30T04:58:08;98974.28;;;19.53;100.00
47815;BME280;33579;50.058;18.130;2022-07-30T04:59:11;98965.69;;;19.58;100.00
47815;BME280;33579;50.058;18.130;2022-07-30T05:00:13;98981.31;;;19.61;100.00
47815;BME280;33579;50.058;18.130;2022-07-30T05:01:21;98967.38;;;19.65;100.00
47815;BME280;33579;50.058;18.130;2022-07-30T05:02:39;98965.53;;;19.66;100.00
47815;BME280;33579;50.058;18.130;2022-07-30T05:03:41;98965.13;;;19.69;100.00
47815;BME280;33579;50.058;18.130;2022-07-30T05:04:44;98966.59;;;19.72;100.00
47815;BME280;33579;50.058;18.130;2022-07-30T05:05:46;98968.22;;;19.73;100.00
47815;BME280;33579;50.058;18.130;2022-07-30T05:06:49;98966.19;;;19.75;100.00
47815;BME280;33579;50.058;18.130;2022-07-30T05:07:51;98970.69;;;19.74;100.00
47815;BME280;33579;50.058;18.130;2022-07-30T05:08:53;98973.16;;;19.76;100.00
47815;BME280;33579;50.058;18.130;2022-07-30T05:09:55;98964.97;;;19.77;100.00
47815;BME280;33579;50.058;18.130;2022-07-30T05:10:57;98971.13;;;19.78;100.00
47815;BME280;33579;50.058;18.130;2022-07-30T05:11:58;98964.97;;;19.77;100.00
47815;BME280;33579;50.058;18.130;2022-07-30T05:13:01;98961.28;;;19.78;100.00
47815;BME280;33579;50.058;18.130;2022-07-30T05:14:03;98961.91;;;19.80;100.00
47815;BME280;33579;50.058;18.130;2022-07-30T05:15:05;98965.00;;;19.84;100.00
47815;BME280;33579;50.058;18.130;2022-07-30T05:16:08;98954.50;;;19.83;100.00
47815;BME280;33579;50.058;18.130;2022-07-30T05:17:09;98961.09;;;19.87;100.00
47815;BME280;33579;50.058;18.130;2022-07-30T05:18:11;98961.72;;;19.89;100.00
47815;BME280;33579;50.058;18.130;2022-07-30T05:19:17;98966.66;;;19.92;100.00
47815;BME280;33579;50.058;18.130;2022-07-30T05:20:18;98957.66;;;19.93;100.00
47815;BME280;33579;50.058;18.130;2022-07-30T05:21:38;98956.66;;;20.01;100.00
47815;BME280;33579;50.058;18.130;2022-07-30T05:22:40;98954.41;;;20.04;100.00
47815;BME280;33579;50.058;18.130;2022-07-30T05:23:44;98954.00;;;20.07;100.00
47815;BME280;33579;50.058;18.130;2022-07-30T05:25:00;98957.28;;;20.10;100.00
47815;BME280;33579;50.058;18.130;2022-07-30T05:26:02;98947.03;;;20.13;100.00
47815;BME280;33579;50.058;18.130;2022-07-30T05:27:09;98953.41;;;20.19;100.00
47815;BME280;33579;50.058;18.130;2022-07-30T05:28:11;98954.63;;;20.23;100.00
47815;BME280;33579;50.058;18.130;2022-07-30T05:29:12;98952.78;;;20.24;100.00
47815;BME280;33579;50.058;18.130;2022-07-30T05:30:24;98946.22;;;20.26;100.00
47815;BME280;33579;50.058;18.130;2022-07-30T05:31:28;98951.78;;;20.31;100.00
47815;BME280;33579;50.058;18.130;2022-07-30T05:32:34;98946.25;;;20.33;100.00
47815;BME280;33579;50.058;18.130;2022-07-30T05:33:36;98942.31;;;20.35;100.00
47815;BME280;33579;50.058;18.130;2022-07-30T05:34:44;98936.19;;;20.42;100.00
47815;BME280;33579;50.058;18.130;2022-07-30T05:35:50;98933.09;;;20.45;100.00
47815;BME280;33579;50.058;18.130;2022-07-30T05:36:52;98938.84;;;20.48;100.00
47815;BME280;33579;50.058;18.130;2022-07-30T05:37:55;98933.50;;;20.48;100.00
47815;BME280;33579;50.058;18.130;2022-07-30T05:38:57;98931.25;;;20.32;100.00